Air Resources Laboratory banner image
Air Resources Laboratory web site National Oceanic and Atmospheric Administration (NOAA)

ok metar


K1F0 212355Z AUTO 00000KT CLR 14/07 A3023 RMK AO2 PWINO TSNO=
KADH 212355Z AUTO 15003KT 10SM CLR 15/06 A3023 RMK AO2=
KADM 212355Z AUTO 15004KT 10SM CLR 16/10 A3022 RMK AO2 T01600100 10219 20160=
KAXS 212355Z AUTO 16007KT 10SM CLR 18/09 A3020 RMK AO2 T01810090 10225 20181=
KBVO 212353Z AUTO 00000KT 10SM CLR 13/07 A3021 RMK AO2 SLP227 T01330067 10206
 20133 58011=
KCLK 212355Z AUTO 15006KT 10SM CLR 16/07 A3018 RMK AO2=
KCSM 212353Z AUTO 18011KT 10SM CLR 16/08 A3018 RMK AO2 SLP215 T01610078 10194
 20161 56015=
KEND 212356Z AUTO 16010KT 10SM BKN200 15/09 A3015 RMK AO2 SLP212 60000
 T01490086 10215 20148 57015 VISNO RWY35C $=
KFDR 212353Z AUTO 19006KT 10SM CLR 18/11 A3017 RMK AO2 SLP210 T01780106 10217
 20178 56015 $=
KFSI 212356Z AUTO 18005KT 10SM CLR 16/09 A3019 RMK AO2 SLP223 T01570089 10219
 20157 56014=
KGAG 212353Z AUTO 18009KT 10SM CLR 17/03 A3012 RMK AO2 SLP196 T01720033 10239
 20172 56013 $=
KGOK 212353Z AUTO 15003KT 9SM CLR 16/08 A3019 RMK AO2 SLP225 T01560078 10217
 20156 56013=
KGUY 212353Z AUTO 19011KT 10SM CLR 19/01 A3007 RMK AO2 SLP160 T01940011 10239
 20194 56012=
KHBR 212353Z AUTO 19007KT 10SM CLR 17/08 A3019 RMK AO2 SLP220 T01670083 10211
 20167 56016=
KLAW 212353Z AUTO 17006KT 10SM CLR 16/09 A3020 RMK AO2 SLP227 T01610089 10217
 20161 56014=
KLTS 212356Z AUTO 16006KT 5/8SM R35R/5000V5500FT BR FEW170 M M RMK AO2 SLPNO
 VISNO RWY17L $=
KMKO 212353Z AUTO 13005KT 10SM CLR 12/04 A3024 RMK AO2 SLP241 T01220039 10183
 20122 58010=
KMLC 212353Z AUTO 12003KT 10SM FEW110 12/07 A3023 RMK AO2 SLP238 T01220072
 10200 20122 56012=
KOKC 212352Z 15006KT 10SM SCT180 SCT250 13/07 A3020 RMK AO2 SLP225 T01330072
 10200 20133 56015 $=
KOUN 212347Z 14006KT 10SM CLR 17/06 A3018=
KPNC 212353Z AUTO 17003KT 10SM CLR 17/06 A3017 RMK AO2 SLP213 T01670056 10217
 20167 56013=
KPWA 212353Z 17007KT 10SM CLR 15/07 A3020 RMK AO2 SLP225 T01500067 10211 20150
 56014=
KRVS 212353Z 16003KT 10SM CLR 17/06 A3021 RMK AO2 SLP234 T01670061 10206 20167
 56010=
KSWO 212353Z 16007KT 10SM CLR 17/06 A3018 RMK AO2 SLP219 T01670061 10228 20167
 56014 $=
KTIK 212356Z AUTO 14003KT 10SM CLR 16/07 A3020 RMK AO2 SLP233 T01620066 10205
 20162 57015 $=
KTUL 212353Z 15008KT 10SM BKN250 17/04 A3019 RMK AO2 SLP224 T01670044 10200
 20167 58013=
KWDG 212350Z 15010KT 10SM SCT150 BKN200 15/10 A3015=
KWWR 212355Z AUTO 00000KT 10SM CLR 18/00 A3015 RMK AO2=